createdAt,value
2022-12-20T00:01:19.339Z,-0.93
2022-12-20T00:11:25.672Z,-0.91
2022-12-20T00:21:32.252Z,-0.89
2022-12-20T00:31:38.023Z,-0.88
2022-12-20T00:41:43.744Z,-0.88
2022-12-20T00:51:49.402Z,-0.86
2022-12-20T01:01:55.350Z,-0.82
2022-12-20T01:12:01.575Z,-0.79
2022-12-20T01:22:07.399Z,-0.79
2022-12-20T01:32:13.098Z,-0.77
2022-12-20T01:42:19.063Z,-0.75
2022-12-20T01:52:32.390Z,-0.71
2022-12-20T02:02:39.405Z,-0.66
2022-12-20T02:12:47.210Z,-0.62
2022-12-20T02:23:14.633Z,-0.54
2022-12-20T02:33:21.367Z,-0.48
2022-12-20T02:43:43.364Z,-0.42
2022-12-20T02:53:49.288Z,-0.36
2022-12-20T03:03:56.291Z,-0.35
2022-12-20T03:14:01.944Z,-0.31
2022-12-20T03:24:08.386Z,-0.27
2022-12-20T03:34:14.061Z,-0.25
2022-12-20T03:44:19.747Z,-0.26
2022-12-20T03:54:25.496Z,-0.34
2022-12-20T04:04:31.158Z,-0.38
2022-12-20T04:14:37.535Z,-0.39
2022-12-20T04:24:43.431Z,-0.38
2022-12-20T04:34:49.192Z,-0.37
2022-12-20T04:44:55.032Z,-0.40
2022-12-20T04:55:01.136Z,-0.41
2022-12-20T05:05:08.203Z,-0.44
2022-12-20T05:15:14.700Z,-0.49
2022-12-20T05:25:38.605Z,-0.57
2022-12-20T05:35:44.425Z,-0.67
2022-12-20T05:45:52.317Z,-0.71
2022-12-20T05:55:58.129Z,-0.70
2022-12-20T06:06:08.700Z,-0.64
2022-12-20T06:16:20.677Z,-0.63
2022-12-20T06:26:26.942Z,-0.78
2022-12-20T06:36:32.784Z,-1.00
2022-12-20T06:46:38.816Z,-1.19
2022-12-20T06:56:44.733Z,-1.25
2022-12-20T07:06:50.805Z,-1.21
2022-12-20T07:16:58.686Z,-1.15
2022-12-20T07:27:04.640Z,-1.02
2022-12-20T07:37:10.517Z,-0.78
2022-12-20T07:47:16.386Z,-0.42
2022-12-20T07:57:28.745Z,-0.14
2022-12-20T08:07:35.806Z,0.04
2022-12-20T08:17:42.997Z,0.32
2022-12-20T08:27:49.625Z,0.83
2022-12-20T08:37:55.666Z,1.30
2022-12-20T08:48:02.069Z,1.65
2022-12-20T08:58:08.203Z,1.69
2022-12-20T09:08:14.219Z,1.66
2022-12-20T09:18:20.068Z,1.80
2022-12-20T09:28:26.103Z,1.90
2022-12-20T09:38:33.615Z,1.91
2022-12-20T09:48:41.643Z,1.89
2022-12-20T09:59:03.333Z,2.12
2022-12-20T10:09:22.985Z,2.81
2022-12-20T10:19:47.964Z,3.32
2022-12-20T10:29:54.865Z,3.41
2022-12-20T10:40:06.958Z,3.43
2022-12-20T10:50:18.274Z,3.32
2022-12-20T11:00:33.341Z,3.10
2022-12-20T11:10:39.615Z,2.79
2022-12-20T11:20:53.121Z,2.68
2022-12-20T11:31:09.600Z,2.56
2022-12-20T11:41:26.674Z,2.34
2022-12-20T11:51:44.768Z,2.20
2022-12-20T12:01:58.205Z,2.68
2022-12-20T12:12:10.884Z,3.10
2022-12-20T12:22:24.454Z,3.42
2022-12-20T12:32:38.004Z,3.31
2022-12-20T12:43:34.846Z,2.98
2022-12-20T12:53:45.929Z,2.50
2022-12-20T13:04:22.544Z,2.41
2022-12-20T13:14:53.801Z,2.35
2022-12-20T13:25:02.847Z,2.39
2022-12-20T13:35:31.528Z,2.40
2022-12-20T13:45:40.088Z,2.37
2022-12-20T13:55:46.231Z,2.27
2022-12-20T14:05:57.673Z,2.02
2022-12-20T14:16:12.259Z,1.78
2022-12-20T14:26:23.441Z,1.66
2022-12-20T14:36:30.685Z,1.54
2022-12-20T14:46:40.244Z,1.40
2022-12-20T14:56:51.971Z,1.35
2022-12-20T15:06:58.474Z,1.30
2022-12-20T15:17:10.949Z,1.33
2022-12-20T15:27:17.521Z,1.35
2022-12-20T15:37:23.780Z,1.29
2022-12-20T15:47:30.020Z,1.22
2022-12-20T15:57:36.225Z,1.22
2022-12-20T16:07:42.451Z,1.17
2022-12-20T16:17:48.450Z,1.05
2022-12-20T16:27:54.929Z,1.02
2022-12-20T16:38:01.827Z,0.84
2022-12-20T16:48:08.575Z,0.70
2022-12-20T16:58:14.571Z,0.60
2022-12-20T17:18:45.569Z,0.35
2022-12-20T17:28:52.116Z,0.15
2022-12-20T17:38:58.248Z,0.03
2022-12-20T17:49:04.611Z,0.17
2022-12-20T17:59:12.742Z,0.29
2022-12-20T18:09:20.989Z,0.25
2022-12-20T18:19:27.131Z,0.14
2022-12-20T18:29:33.491Z,0.08
2022-12-20T18:39:39.694Z,0.02
2022-12-20T18:49:45.778Z,-0.07
2022-12-20T18:59:51.949Z,-0.11
2022-12-20T19:09:57.987Z,-0.03
2022-12-20T19:20:05.319Z,0.12
2022-12-20T19:30:12.874Z,0.26
2022-12-20T19:40:19.070Z,0.39
2022-12-20T19:50:25.053Z,0.48
2022-12-20T20:00:31.155Z,0.51
2022-12-20T20:10:37.310Z,0.54
2022-12-20T20:20:44.272Z,0.57
2022-12-20T20:30:51.240Z,0.56
2022-12-20T20:40:55.570Z,0.55
2022-12-20T20:51:01.819Z,0.54
2022-12-20T21:01:09.738Z,0.53
2022-12-20T21:11:15.893Z,0.57
2022-12-20T21:21:22.645Z,0.61
2022-12-20T21:31:28.944Z,0.63
2022-12-20T21:41:35.008Z,0.65
2022-12-20T21:51:40.983Z,0.68
2022-12-20T22:01:47.312Z,0.73
2022-12-20T22:11:53.464Z,0.76
2022-12-20T22:21:59.734Z,0.74
2022-12-20T22:32:05.915Z,0.72
2022-12-20T22:42:12.008Z,0.72
2022-12-20T22:52:18.184Z,0.71
2022-12-20T23:02:24.413Z,0.72
2022-12-20T23:12:48.200Z,0.71
2022-12-20T23:22:54.161Z,0.72
2022-12-20T23:33:00.248Z,0.73
2022-12-20T23:43:06.585Z,0.62
2022-12-20T23:53:12.463Z,0.49
